Terminal Aerodrome Forecast
Issued by NWS

Home | Current Version | Previous Version | Text Only | Print | Product List | Glossary On
Versions: 1 2 3 4 5 6 7 8 9 10 11 12 13 14 15 16 17 18 19
718
FTUS46 KMFR 110548
TAFRBG
TAF
KRBG 110548Z 1106/1206 00000KT P6SM FEW080 OVC100
     FM111000 00000KT P6SM VCSH SCT040 OVC080
     FM111900 VRB03KT P6SM FEW040 BKN080=

USA.gov is the U.S. government's official web portal to all federal, state and local government web resources and services.